sensor_id;sensor_type;location;lat;lon;timestamp;P1;durP1;ratioP1;P2;durP2;ratioP2
34497;SDS011;20744;50.938;7.286;2024-02-04T00:00:23;19.25;;;14.23;;
34497;SDS011;20744;50.938;7.286;2024-02-04T00:02:50;18.15;;;12.90;;
34497;SDS011;20744;50.938;7.286;2024-02-04T00:05:20;19.98;;;13.70;;
34497;SDS011;20744;50.938;7.286;2024-02-04T00:07:48;15.75;;;11.32;;
34497;SDS011;20744;50.938;7.286;2024-02-04T00:10:15;14.27;;;11.38;;
34497;SDS011;20744;50.938;7.286;2024-02-04T00:12:43;12.80;;;10.77;;
34497;SDS011;20744;50.938;7.286;2024-02-04T00:15:11;11.38;;;10.07;;
34497;SDS011;20744;50.938;7.286;2024-02-04T00:17:38;11.65;;;9.52;;
34497;SDS011;20744;50.938;7.286;2024-02-04T00:20:06;13.65;;;9.35;;
34497;SDS011;20744;50.938;7.286;2024-02-04T00:22:35;9.38;;;8.25;;
34497;SDS011;20744;50.938;7.286;2024-02-04T00:25:03;13.23;;;8.63;;
34497;SDS011;20744;50.938;7.286;2024-02-04T00:27:30;9.07;;;6.90;;
34497;SDS011;20744;50.938;7.286;2024-02-04T00:29:58;9.18;;;7.10;;
34497;SDS011;20744;50.938;7.286;2024-02-04T00:32:27;8.57;;;7.25;;
34497;SDS011;20744;50.938;7.286;2024-02-04T00:34:54;7.38;;;5.78;;
34497;SDS011;20744;50.938;7.286;2024-02-04T00:37:21;7.78;;;4.90;;
34497;SDS011;20744;50.938;7.286;2024-02-04T00:39:50;7.03;;;5.43;;
34497;SDS011;20744;50.938;7.286;2024-02-04T00:42:17;6.38;;;4.00;;
34497;SDS011;20744;50.938;7.286;2024-02-04T00:44:44;6.03;;;4.43;;
34497;SDS011;20744;50.938;7.286;2024-02-04T00:47:11;7.35;;;3.60;;
34497;SDS011;20744;50.938;7.286;2024-02-04T00:49:39;6.63;;;4.07;;
34497;SDS011;20744;50.938;7.286;2024-02-04T00:52:06;8.05;;;4.38;;
34497;SDS011;20744;50.938;7.286;2024-02-04T00:54:33;4.57;;;3.92;;
34497;SDS011;20744;50.938;7.286;2024-02-04T00:57:02;7.60;;;4.07;;
34497;SDS011;20744;50.938;7.286;2024-02-04T00:59:30;5.57;;;4.25;;
34497;SDS011;20744;50.938;7.286;2024-02-04T01:01:57;7.10;;;4.28;;
34497;SDS011;20744;50.938;7.286;2024-02-04T01:04:24;4.72;;;4.10;;
34497;SDS011;20744;50.938;7.286;2024-02-04T01:06:52;5.30;;;4.40;;
34497;SDS011;20744;50.938;7.286;2024-02-04T01:09:19;5.60;;;4.75;;
34497;SDS011;20744;50.938;7.286;2024-02-04T01:11:46;4.90;;;4.40;;
34497;SDS011;20744;50.938;7.286;2024-02-04T01:14:15;6.40;;;3.63;;
34497;SDS011;20744;50.938;7.286;2024-02-04T01:16:42;4.80;;;3.53;;
34497;SDS011;20744;50.938;7.286;2024-02-04T01:19:10;5.70;;;3.72;;
34497;SDS011;20744;50.938;7.286;2024-02-04T01:21:37;7.00;;;3.83;;
34497;SDS011;20744;50.938;7.286;2024-02-04T01:24:04;5.63;;;3.80;;
34497;SDS011;20744;50.938;7.286;2024-02-04T01:26:32;4.65;;;3.90;;
34497;SDS011;20744;50.938;7.286;2024-02-04T01:28:59;5.18;;;4.68;;
34497;SDS011;20744;50.938;7.286;2024-02-04T01:31:28;4.72;;;4.13;;
34497;SDS011;20744;50.938;7.286;2024-02-04T01:33:56;5.18;;;4.68;;
34497;SDS011;20744;50.938;7.286;2024-02-04T01:36:23;6.20;;;4.57;;
34497;SDS011;20744;50.938;7.286;2024-02-04T01:38:50;7.13;;;4.90;;
34497;SDS011;20744;50.938;7.286;2024-02-04T01:41:18;4.78;;;4.00;;
34497;SDS011;20744;50.938;7.286;2024-02-04T01:43:45;4.85;;;3.90;;
34497;SDS011;20744;50.938;7.286;2024-02-04T01:46:12;8.27;;;4.53;;
34497;SDS011;20744;50.938;7.286;2024-02-04T01:48:41;3.50;;;3.20;;
34497;SDS011;20744;50.938;7.286;2024-02-04T01:51:08;3.40;;;3.10;;
34497;SDS011;20744;50.938;7.286;2024-02-04T01:53:36;4.05;;;2.75;;
34497;SDS011;20744;50.938;7.286;2024-02-04T01:56:03;3.60;;;2.80;;
34497;SDS011;20744;50.938;7.286;2024-02-04T01:58:31;2.90;;;2.60;;
34497;SDS011;20744;50.938;7.286;2024-02-04T02:00:58;3.20;;;2.83;;
34497;SDS011;20744;50.938;7.286;2024-02-04T02:03:26;3.15;;;2.60;;
34497;SDS011;20744;50.938;7.286;2024-02-04T02:05:54;4.50;;;2.90;;
34497;SDS011;20744;50.938;7.286;2024-02-04T02:08:22;3.10;;;2.80;;
34497;SDS011;20744;50.938;7.286;2024-02-04T02:10:50;3.63;;;2.80;;
34497;SDS011;20744;50.938;7.286;2024-02-04T02:13:20;5.38;;;2.78;;
34497;SDS011;20744;50.938;7.286;2024-02-04T02:15:51;3.75;;;2.88;;
34497;SDS011;20744;50.938;7.286;2024-02-04T02:18:19;3.67;;;3.03;;
34497;SDS011;20744;50.938;7.286;2024-02-04T02:20:54;3.95;;;2.97;;
34497;SDS011;20744;50.938;7.286;2024-02-04T02:23:29;3.88;;;3.20;;
34497;SDS011;20744;50.938;7.286;2024-02-04T02:25:58;4.20;;;3.80;;
34497;SDS011;20744;50.938;7.286;2024-02-04T02:28:29;5.03;;;4.10;;
34497;SDS011;20744;50.938;7.286;2024-02-04T02:30:57;7.70;;;4.25;;
34497;SDS011;20744;50.938;7.286;2024-02-04T02:33:24;4.82;;;4.40;;
34497;SDS011;20744;50.938;7.286;2024-02-04T02:35:53;4.72;;;4.32;;
34497;SDS011;20744;50.938;7.286;2024-02-04T02:38:24;5.43;;;4.32;;
34497;SDS011;20744;50.938;7.286;2024-02-04T02:41:13;5.55;;;4.82;;
34497;SDS011;20744;50.938;7.286;2024-02-04T02:43:42;7.65;;;4.95;;
34497;SDS011;20744;50.938;7.286;2024-02-04T02:46:10;7.60;;;5.40;;
34497;SDS011;20744;50.938;7.286;2024-02-04T02:48:37;5.93;;;4.97;;
34497;SDS011;20744;50.938;7.286;2024-02-04T02:51:05;6.97;;;4.82;;
34497;SDS011;20744;50.938;7.286;2024-02-04T02:53:32;5.20;;;4.70;;
34497;SDS011;20744;50.938;7.286;2024-02-04T02:55:59;6.80;;;5.40;;
34497;SDS011;20744;50.938;7.286;2024-02-04T02:58:28;5.78;;;5.18;;
34497;SDS011;20744;50.938;7.286;2024-02-04T03:00:57;7.30;;;5.43;;
34497;SDS011;20744;50.938;7.286;2024-02-04T03:03:24;6.13;;;5.38;;
34497;SDS011;20744;50.938;7.286;2024-02-04T03:05:52;7.32;;;5.97;;
34497;SDS011;20744;50.938;7.286;2024-02-04T03:08:19;9.82;;;5.85;;
34497;SDS011;20744;50.938;7.286;2024-02-04T03:10:46;7.00;;;5.30;;
34497;SDS011;20744;50.938;7.286;2024-02-04T03:13:13;7.95;;;5.60;;
34497;SDS011;20744;50.938;7.286;2024-02-04T03:15:42;8.25;;;5.47;;
34497;SDS011;20744;50.938;7.286;2024-02-04T03:18:12;7.38;;;5.28;;
34497;SDS011;20744;50.938;7.286;2024-02-04T03:20:41;10.43;;;5.25;;
34497;SDS011;20744;50.938;7.286;2024-02-04T03:23:08;8.30;;;5.75;;
34497;SDS011;20744;50.938;7.286;2024-02-04T03:25:35;7.90;;;5.75;;
34497;SDS011;20744;50.938;7.286;2024-02-04T03:28:03;5.65;;;5.05;;
34497;SDS011;20744;50.938;7.286;2024-02-04T03:30:30;7.43;;;4.50;;
34497;SDS011;20744;50.938;7.286;2024-02-04T03:32:59;7.90;;;5.05;;
34497;SDS011;20744;50.938;7.286;2024-02-04T03:35:29;6.45;;;4.50;;
34497;SDS011;20744;50.938;7.286;2024-02-04T03:37:57;8.50;;;4.50;;
34497;SDS011;20744;50.938;7.286;2024-02-04T03:40:24;6.05;;;4.40;;
34497;SDS011;20744;50.938;7.286;2024-02-04T03:42:51;8.90;;;5.38;;
34497;SDS011;20744;50.938;7.286;2024-02-04T03:45:18;6.20;;;4.53;;
34497;SDS011;20744;50.938;7.286;2024-02-04T03:47:46;7.78;;;5.20;;
34497;SDS011;20744;50.938;7.286;2024-02-04T03:50:15;8.27;;;4.80;;
34497;SDS011;20744;50.938;7.286;2024-02-04T03:52:42;9.57;;;5.88;;
34497;SDS011;20744;50.938;7.286;2024-02-04T03:55:09;7.40;;;5.97;;
34497;SDS011;20744;50.938;7.286;2024-02-04T03:57:36;7.90;;;6.03;;
34497;SDS011;20744;50.938;7.286;2024-02-04T04:00:04;8.50;;;6.18;;
34497;SDS011;20744;50.938;7.286;2024-02-04T04:02:32;14.00;;;6.32;;
34497;SDS011;20744;50.938;7.286;2024-02-04T04:04:59;8.55;;;6.65;;
34497;SDS011;20744;50.938;7.286;2024-02-04T04:07:31;11.65;;;7.38;;
34497;SDS011;20744;50.938;7.286;2024-02-04T04:09:58;10.82;;;6.72;;
34497;SDS011;20744;50.938;7.286;2024-02-04T04:12:25;10.40;;;6.38;;
34497;SDS011;20744;50.938;7.286;2024-02-04T04:14:53;9.27;;;6.15;;
34497;SDS011;20744;50.938;7.286;2024-02-04T04:17:20;8.30;;;6.72;;
34497;SDS011;20744;50.938;7.286;2024-02-04T04:19:47;11.20;;;7.20;;
34497;SDS011;20744;50.938;7.286;2024-02-04T04:22:14;9.27;;;6.50;;
34497;SDS011;20744;50.938;7.286;2024-02-04T04:24:43;16.27;;;7.07;;
34497;SDS011;20744;50.938;7.286;2024-02-04T04:27:10;10.05;;;7.45;;
34497;SDS011;20744;50.938;7.286;2024-02-04T04:29:38;10.50;;;6.93;;
34497;SDS011;20744;50.938;7.286;2024-02-04T04:32:08;12.32;;;7.95;;
34497;SDS011;20744;50.938;7.286;2024-02-04T04:34:35;11.73;;;8.10;;
34497;SDS011;20744;50.938;7.286;2024-02-04T04:37:02;14.52;;;9.65;;
34497;SDS011;20744;50.938;7.286;2024-02-04T04:39:29;14.25;;;8.82;;
34497;SDS011;20744;50.938;7.286;2024-02-04T04:41:58;12.18;;;8.77;;
34497;SDS011;20744;50.938;7.286;2024-02-04T04:44:26;10.68;;;8.20;;
34497;SDS011;20744;50.938;7.286;2024-02-04T04:46:53;12.35;;;7.32;;
34497;SDS011;20744;50.938;7.286;2024-02-04T04:49:20;11.98;;;8.38;;
34497;SDS011;20744;50.938;7.286;2024-02-04T04:51:48;11.75;;;7.32;;
34497;SDS011;20744;50.938;7.286;2024-02-04T04:54:15;11.85;;;7.43;;
34497;SDS011;20744;50.938;7.286;2024-02-04T04:56:42;9.65;;;6.75;;
34497;SDS011;20744;50.938;7.286;2024-02-04T04:59:11;9.63;;;6.32;;
34497;SDS011;20744;50.938;7.286;2024-02-04T05:01:44;10.75;;;6.80;;
34497;SDS011;20744;50.938;7.286;2024-02-04T05:04:12;12.13;;;6.85;;
34497;SDS011;20744;50.938;7.286;2024-02-04T05:06:39;11.05;;;6.80;;
34497;SDS011;20744;50.938;7.286;2024-02-04T05:09:07;9.30;;;6.43;;
34497;SDS011;20744;50.938;7.286;2024-02-04T05:11:34;8.60;;;5.90;;
34497;SDS011;20744;50.938;7.286;2024-02-04T05:14:02;11.23;;;6.25;;
34497;SDS011;20744;50.938;7.286;2024-02-04T05:16:30;11.23;;;6.85;;
34497;SDS011;20744;50.938;7.286;2024-02-04T05:18:58;11.00;;;6.55;;
34497;SDS011;20744;50.938;7.286;2024-02-04T05:21:26;9.52;;;6.55;;
34497;SDS011;20744;50.938;7.286;2024-02-04T05:23:54;8.57;;;6.35;;
34497;SDS011;20744;50.938;7.286;2024-02-04T05:26:21;9.77;;;7.07;;
34497;SDS011;20744;50.938;7.286;2024-02-04T05:28:48;9.55;;;7.03;;
34497;SDS011;20744;50.938;7.286;2024-02-04T05:31:16;11.52;;;7.05;;
34497;SDS011;20744;50.938;7.286;2024-02-04T05:33:44;12.30;;;6.95;;
34497;SDS011;20744;50.938;7.286;2024-02-04T05:36:12;9.65;;;7.10;;
34497;SDS011;20744;50.938;7.286;2024-02-04T05:38:42;11.25;;;6.80;;
34497;SDS011;20744;50.938;7.286;2024-02-04T05:41:09;10.95;;;7.50;;
34497;SDS011;20744;50.938;7.286;2024-02-04T05:43:36;11.77;;;7.63;;
34497;SDS011;20744;50.938;7.286;2024-02-04T05:46:04;12.88;;;8.23;;
34497;SDS011;20744;50.938;7.286;2024-02-04T05:48:31;12.65;;;6.80;;
34497;SDS011;20744;50.938;7.286;2024-02-04T05:51:00;9.40;;;6.78;;
34497;SDS011;20744;50.938;7.286;2024-02-04T05:53:27;15.38;;;7.13;;
34497;SDS011;20744;50.938;7.286;2024-02-04T05:55:55;12.13;;;7.38;;
34497;SDS011;20744;50.938;7.286;2024-02-04T05:58:22;11.95;;;6.80;;
34497;SDS011;20744;50.938;7.286;2024-02-04T06:00:49;12.63;;;7.90;;
34497;SDS011;20744;50.938;7.286;2024-02-04T06:03:17;12.80;;;8.23;;
34497;SDS011;20744;50.938;7.286;2024-02-04T06:05:44;15.82;;;6.80;;
34497;SDS011;20744;50.938;7.286;2024-02-04T06:08:12;12.10;;;7.07;;
34497;SDS011;20744;50.938;7.286;2024-02-04T06:10:40;13.82;;;7.32;;
34497;SDS011;20744;50.938;7.286;2024-02-04T06:13:07;14.02;;;7.18;;
34497;SDS011;20744;50.938;7.286;2024-02-04T06:15:34;12.73;;;7.50;;
34497;SDS011;20744;50.938;7.286;2024-02-04T06:18:02;12.43;;;7.05;;
34497;SDS011;20744;50.938;7.286;2024-02-04T06:20:29;9.88;;;6.90;;
34497;SDS011;20744;50.938;7.286;2024-02-04T06:22:56;11.57;;;7.07;;
34497;SDS011;20744;50.938;7.286;2024-02-04T06:25:25;11.43;;;7.88;;
34497;SDS011;20744;50.938;7.286;2024-02-04T06:27:52;13.05;;;7.60;;
34497;SDS011;20744;50.938;7.286;2024-02-04T06:30:20;12.90;;;8.25;;
34497;SDS011;20744;50.938;7.286;2024-02-04T06:32:47;13.95;;;8.50;;
34497;SDS011;20744;50.938;7.286;2024-02-04T06:35:15;14.02;;;9.63;;
34497;SDS011;20744;50.938;7.286;2024-02-04T06:37:42;14.95;;;9.75;;
34497;SDS011;20744;50.938;7.286;2024-02-04T06:40:10;13.35;;;9.23;;
34497;SDS011;20744;50.938;7.286;2024-02-04T06:42:38;13.27;;;9.48;;
34497;SDS011;20744;50.938;7.286;2024-02-04T06:45:06;14.80;;;10.15;;
34497;SDS011;20744;50.938;7.286;2024-02-04T06:47:33;15.93;;;10.55;;
34497;SDS011;20744;50.938;7.286;2024-02-04T06:50:01;13.80;;;10.00;;
34497;SDS011;20744;50.938;7.286;2024-02-04T06:52:30;15.75;;;9.10;;
34497;SDS011;20744;50.938;7.286;2024-02-04T06:54:57;13.18;;;9.35;;
34497;SDS011;20744;50.938;7.286;2024-02-04T06:57:25;18.25;;;8.63;;
34497;SDS011;20744;50.938;7.286;2024-02-04T06:59:53;13.70;;;7.50;;
34497;SDS011;20744;50.938;7.286;2024-02-04T07:02:22;11.65;;;7.53;;
34497;SDS011;20744;50.938;7.286;2024-02-04T07:04:49;11.00;;;7.43;;
34497;SDS011;20744;50.938;7.286;2024-02-04T07:07:16;10.38;;;7.13;;
34497;SDS011;20744;50.938;7.286;2024-02-04T07:09:44;13.55;;;6.88;;
34497;SDS011;20744;50.938;7.286;2024-02-04T07:12:11;12.88;;;7.57;;
34497;SDS011;20744;50.938;7.286;2024-02-04T07:14:38;11.05;;;6.47;;
34497;SDS011;20744;50.938;7.286;2024-02-04T07:17:07;11.10;;;7.32;;
34497;SDS011;20744;50.938;7.286;2024-02-04T07:19:36;11.75;;;7.72;;
34497;SDS011;20744;50.938;7.286;2024-02-04T07:22:04;12.70;;;8.43;;
34497;SDS011;20744;50.938;7.286;2024-02-04T07:24:31;13.98;;;8.38;;
34497;SDS011;20744;50.938;7.286;2024-02-04T07:27:03;14.30;;;9.75;;
34497;SDS011;20744;50.938;7.286;2024-02-04T07:29:30;18.33;;;9.85;;
34497;SDS011;20744;50.938;7.286;2024-02-04T07:31:58;19.90;;;10.68;;
34497;SDS011;20744;50.938;7.286;2024-02-04T07:34:26;16.77;;;10.45;;
34497;SDS011;20744;50.938;7.286;2024-02-04T07:36:53;12.88;;;8.68;;
34497;SDS011;20744;50.938;7.286;2024-02-04T07:39:21;10.02;;;7.50;;
34497;SDS011;20744;50.938;7.286;2024-02-04T07:41:51;11.25;;;7.32;;
34497;SDS011;20744;50.938;7.286;2024-02-04T07:44:21;9.70;;;7.25;;
34497;SDS011;20744;50.938;7.286;2024-02-04T07:46:49;8.43;;;6.38;;
34497;SDS011;20744;50.938;7.286;2024-02-04T07:49:16;9.93;;;5.78;;
34497;SDS011;20744;50.938;7.286;2024-02-04T07:51:45;7.20;;;5.88;;
34497;SDS011;20744;50.938;7.286;2024-02-04T07:54:13;6.53;;;5.75;;
34497;SDS011;20744;50.938;7.286;2024-02-04T07:56:40;8.23;;;6.45;;
34497;SDS011;20744;50.938;7.286;2024-02-04T07:59:07;9.68;;;6.85;;
34497;SDS011;20744;50.938;7.286;2024-02-04T08:01:35;8.70;;;7.10;;
34497;SDS011;20744;50.938;7.286;2024-02-04T08:04:02;10.63;;;6.88;;
34497;SDS011;20744;50.938;7.286;2024-02-04T08:06:30;7.63;;;6.78;;
34497;SDS011;20744;50.938;7.286;2024-02-04T08:09:00;7.32;;;6.43;;
34497;SDS011;20744;50.938;7.286;2024-02-04T08:11:28;8.35;;;5.90;;
34497;SDS011;20744;50.938;7.286;2024-02-04T08:13:55;6.20;;;5.45;;
34497;SDS011;20744;50.938;7.286;2024-02-04T08:16:23;5.60;;;4.90;;
34497;SDS011;20744;50.938;7.286;2024-02-04T08:18:50;9.82;;;4.30;;
34497;SDS011;20744;50.938;7.286;2024-02-04T08:21:17;8.50;;;5.00;;
34497;SDS011;20744;50.938;7.286;2024-02-04T08:23:44;4.93;;;4.45;;
34497;SDS011;20744;50.938;7.286;2024-02-04T08:26:13;4.78;;;4.28;;
34497;SDS011;20744;50.938;7.286;2024-02-04T08:28:40;4.43;;;4.00;;
34497;SDS011;20744;50.938;7.286;2024-02-04T08:31:08;4.95;;;4.25;;
34497;SDS011;20744;50.938;7.286;2024-02-04T08:33:35;3.90;;;3.58;;
34497;SDS011;20744;50.938;7.286;2024-02-04T08:36:03;4.32;;;3.83;;
34497;SDS011;20744;50.938;7.286;2024-02-04T08:38:31;4.07;;;3.67;;
34497;SDS011;20744;50.938;7.286;2024-02-04T08:40:58;5.13;;;4.28;;
34497;SDS011;20744;50.938;7.286;2024-02-04T08:43:27;11.60;;;4.25;;
34497;SDS011;20744;50.938;7.286;2024-02-04T08:45:54;5.07;;;4.38;;
34497;SDS011;20744;50.938;7.286;2024-02-04T08:48:22;6.07;;;4.35;;
34497;SDS011;20744;50.938;7.286;2024-02-04T08:50:49;5.43;;;4.07;;
34497;SDS011;20744;50.938;7.286;2024-02-04T08:53:19;4.60;;;4.10;;
34497;SDS011;20744;50.938;7.286;2024-02-04T08:55:46;5.88;;;3.92;;
34497;SDS011;20744;50.938;7.286;2024-02-04T08:58:14;5.22;;;4.00;;
34497;SDS011;20744;50.938;7.286;2024-02-04T09:00:43;8.30;;;3.45;;
34497;SDS011;20744;50.938;7.286;2024-02-04T09:03:10;3.95;;;3.30;;
34497;SDS011;20744;50.938;7.286;2024-02-04T09:05:37;4.53;;;3.38;;
34497;SDS011;20744;50.938;7.286;2024-02-04T09:08:05;4.10;;;2.97;;
34497;SDS011;20744;50.938;7.286;2024-02-04T09:10:32;7.10;;;3.00;;
34497;SDS011;20744;50.938;7.286;2024-02-04T09:12:59;3.83;;;2.67;;
34497;SDS011;20744;50.938;7.286;2024-02-04T09:15:26;14.68;;;5.05;;
34497;SDS011;20744;50.938;7.286;2024-02-04T09:17:55;4.47;;;2.70;;
34497;SDS011;20744;50.938;7.286;2024-02-04T09:20:22;5.68;;;2.80;;
34497;SDS011;20744;50.938;7.286;2024-02-04T09:22:50;4.55;;;2.40;;
34497;SDS011;20744;50.938;7.286;2024-02-04T09:25:17;3.22;;;2.15;;
34497;SDS011;20744;50.938;7.286;2024-02-04T09:27:44;5.45;;;2.50;;
34497;SDS011;20744;50.938;7.286;2024-02-04T09:30:17;3.38;;;2.60;;
34497;SDS011;20744;50.938;7.286;2024-02-04T09:32:45;2.83;;;2.40;;
34497;SDS011;20744;50.938;7.286;2024-02-04T09:35:14;6.03;;;3.05;;
34497;SDS011;20744;50.938;7.286;2024-02-04T09:37:41;4.03;;;2.33;;
34497;SDS011;20744;50.938;7.286;2024-02-04T09:40:09;4.18;;;2.63;;
34497;SDS011;20744;50.938;7.286;2024-02-04T09:42:37;5.10;;;2.58;;
34497;SDS011;20744;50.938;7.286;2024-02-04T09:45:08;3.85;;;2.63;;
34497;SDS011;20744;50.938;7.286;2024-02-04T09:47:35;4.40;;;3.22;;
34497;SDS011;20744;50.938;7.286;2024-02-04T09:50:03;2.95;;;2.50;;
34497;SDS011;20744;50.938;7.286;2024-02-04T09:52:33;3.97;;;2.75;;
34497;SDS011;20744;50.938;7.286;2024-02-04T09:55:00;5.50;;;2.65;;
34497;SDS011;20744;50.938;7.286;2024-02-04T09:57:28;3.70;;;2.53;;
34497;SDS011;20744;50.938;7.286;2024-02-04T09:59:56;4.22;;;2.92;;
34497;SDS011;20744;50.938;7.286;2024-02-04T10:02:23;3.55;;;2.55;;
34497;SDS011;20744;50.938;7.286;2024-02-04T10:04:51;2.53;;;2.30;;
34497;SDS011;20744;50.938;7.286;2024-02-04T10:07:18;3.63;;;2.60;;
34497;SDS011;20744;50.938;7.286;2024-02-04T10:09:47;2.97;;;2.67;;
34497;SDS011;20744;50.938;7.286;2024-02-04T10:12:14;3.15;;;2.53;;
34497;SDS011;20744;50.938;7.286;2024-02-04T10:14:42;3.08;;;2.20;;
34497;SDS011;20744;50.938;7.286;2024-02-04T10:17:09;2.72;;;2.20;;
34497;SDS011;20744;50.938;7.286;2024-02-04T10:19:36;3.67;;;2.40;;
34497;SDS011;20744;50.938;7.286;2024-02-04T10:22:04;3.50;;;2.38;;
34497;SDS011;20744;50.938;7.286;2024-02-04T10:24:31;3.25;;;2.08;;
34497;SDS011;20744;50.938;7.286;2024-02-04T10:27:00;3.95;;;2.88;;
34497;SDS011;20744;50.938;7.286;2024-02-04T10:29:27;3.90;;;2.50;;
34497;SDS011;20744;50.938;7.286;2024-02-04T10:31:55;5.22;;;3.15;;
34497;SDS011;20744;50.938;7.286;2024-02-04T10:34:22;3.35;;;2.75;;
34497;SDS011;20744;50.938;7.286;2024-02-04T10:36:50;3.53;;;2.58;;
34497;SDS011;20744;50.938;7.286;2024-02-04T10:39:17;4.90;;;2.13;;
34497;SDS011;20744;50.938;7.286;2024-02-04T10:41:48;3.50;;;2.30;;
34497;SDS011;20744;50.938;7.286;2024-02-04T10:44:18;2.55;;;1.90;;
34497;SDS011;20744;50.938;7.286;2024-02-04T10:46:46;2.90;;;2.40;;
34497;SDS011;20744;50.938;7.286;2024-02-04T10:49:14;4.38;;;2.15;;
34497;SDS011;20744;50.938;7.286;2024-02-04T10:51:42;4.85;;;2.03;;
34497;SDS011;20744;50.938;7.286;2024-02-04T10:54:09;5.40;;;2.33;;
34497;SDS011;20744;50.938;7.286;2024-02-04T10:56:43;4.45;;;2.28;;
34497;SDS011;20744;50.938;7.286;2024-02-04T10:59:11;3.15;;;2.28;;
34497;SDS011;20744;50.938;7.286;2024-02-04T11:01:40;4.50;;;2.50;;
34497;SDS011;20744;50.938;7.286;2024-02-04T11:04:08;3.42;;;2.75;;
34497;SDS011;20744;50.938;7.286;2024-02-04T11:06:35;6.30;;;2.83;;
34497;SDS011;20744;50.938;7.286;2024-02-04T11:09:02;4.10;;;2.47;;
34497;SDS011;20744;50.938;7.286;2024-02-04T11:11:30;3.50;;;2.03;;
34497;SDS011;20744;50.938;7.286;2024-02-04T11:14:00;3.03;;;2.10;;
34497;SDS011;20744;50.938;7.286;2024-02-04T11:16:31;5.10;;;2.10;;
34497;SDS011;20744;50.938;7.286;2024-02-04T11:19:10;6.38;;;2.25;;
34497;SDS011;20744;50.938;7.286;2024-02-04T11:24:25;3.50;;;2.10;;
34497;SDS011;20744;50.938;7.286;2024-02-04T11:26:52;2.72;;;2.00;;
34497;SDS011;20744;50.938;7.286;2024-02-04T11:29:20;3.20;;;1.98;;
34497;SDS011;20744;50.938;7.286;2024-02-04T11:31:48;4.80;;;2.30;;
34497;SDS011;20744;50.938;7.286;2024-02-04T11:34:17;4.90;;;2.15;;
34497;SDS011;20744;50.938;7.286;2024-02-04T11:36:44;2.40;;;1.80;;
34497;SDS011;20744;50.938;7.286;2024-02-04T11:39:11;2.70;;;1.98;;
34497;SDS011;20744;50.938;7.286;2024-02-04T11:41:47;3.00;;;2.15;;
34497;SDS011;20744;50.938;7.286;2024-02-04T11:44:19;2.72;;;1.75;;
34497;SDS011;20744;50.938;7.286;2024-02-04T11:46:47;2.28;;;1.90;;
34497;SDS011;20744;50.938;7.286;2024-02-04T11:49:14;2.55;;;2.10;;
34497;SDS011;20744;50.938;7.286;2024-02-04T11:51:45;4.13;;;1.50;;
34497;SDS011;20744;50.938;7.286;2024-02-04T11:54:14;2.30;;;1.52;;
34497;SDS011;20744;50.938;7.286;2024-02-04T11:56:43;1.98;;;1.30;;
34497;SDS011;20744;50.938;7.286;2024-02-04T11:59:11;1.60;;;1.00;;
34497;SDS011;20744;50.938;7.286;2024-02-04T12:01:39;2.15;;;1.40;;
34497;SDS011;20744;50.938;7.286;2024-02-04T12:04:10;1.85;;;1.30;;
34497;SDS011;20744;50.938;7.286;2024-02-04T12:06:38;1.75;;;1.33;;
34497;SDS011;20744;50.938;7.286;2024-02-04T12:09:07;5.25;;;1.55;;
34497;SDS011;20744;50.938;7.286;2024-02-04T12:11:35;2.60;;;1.55;;
34497;SDS011;20744;50.938;7.286;2024-02-04T12:14:03;2.33;;;1.70;;
34497;SDS011;20744;50.938;7.286;2024-02-04T12:16:31;2.08;;;1.58;;
34497;SDS011;20744;50.938;7.286;2024-02-04T12:19:00;3.05;;;1.50;;
34497;SDS011;20744;50.938;7.286;2024-02-04T12:21:28;2.60;;;1.70;;
34497;SDS011;20744;50.938;7.286;2024-02-04T12:23:56;5.75;;;1.90;;
34497;SDS011;20744;50.938;7.286;2024-02-04T12:26:24;2.60;;;1.48;;
34497;SDS011;20744;50.938;7.286;2024-02-04T12:28:52;2.42;;;1.80;;
34497;SDS011;20744;50.938;7.286;2024-02-04T12:31:20;2.10;;;1.50;;
34497;SDS011;20744;50.938;7.286;2024-02-04T12:33:54;2.42;;;1.90;;
34497;SDS011;20744;50.938;7.286;2024-02-04T12:36:23;2.80;;;2.10;;
34497;SDS011;20744;50.938;7.286;2024-02-04T12:38:54;5.82;;;1.80;;
34497;SDS011;20744;50.938;7.286;2024-02-04T12:41:22;4.43;;;2.00;;
34497;SDS011;20744;50.938;7.286;2024-02-04T12:43:51;3.33;;;1.80;;
34497;SDS011;20744;50.938;7.286;2024-02-04T12:46:18;2.83;;;1.77;;
34497;SDS011;20744;50.938;7.286;2024-02-04T12:48:52;2.95;;;1.90;;
34497;SDS011;20744;50.938;7.286;2024-02-04T12:51:25;3.10;;;1.77;;
34497;SDS011;20744;50.938;7.286;2024-02-04T12:54:02;1.80;;;1.70;;
34497;SDS011;20744;50.938;7.286;2024-02-04T12:56:39;2.55;;;2.00;;
34497;SDS011;20744;50.938;7.286;2024-02-04T12:59:08;3.95;;;2.10;;
34497;SDS011;20744;50.938;7.286;2024-02-04T13:01:35;3.00;;;2.40;;
34497;SDS011;20744;50.938;7.286;2024-02-04T13:04:03;2.75;;;2.30;;
34497;SDS011;20744;50.938;7.286;2024-02-04T13:06:31;2.22;;;1.80;;
34497;SDS011;20744;50.938;7.286;2024-02-04T13:08:58;2.90;;;2.00;;
34497;SDS011;20744;50.938;7.286;2024-02-04T13:11:25;3.70;;;1.92;;
34497;SDS011;20744;50.938;7.286;2024-02-04T13:13:52;3.55;;;2.00;;
34497;SDS011;20744;50.938;7.286;2024-02-04T13:16:21;2.15;;;1.80;;
34497;SDS011;20744;50.938;7.286;2024-02-04T13:18:53;2.00;;;1.70;;
34497;SDS011;20744;50.938;7.286;2024-02-04T13:21:20;1.92;;;1.73;;
34497;SDS011;20744;50.938;7.286;2024-02-04T13:23:47;4.25;;;1.83;;
34497;SDS011;20744;50.938;7.286;2024-02-04T13:26:15;2.78;;;1.70;;
34497;SDS011;20744;50.938;7.286;2024-02-04T13:28:42;1.88;;;1.67;;
34497;SDS011;20744;50.938;7.286;2024-02-04T13:31:10;4.00;;;1.88;;
34497;SDS011;20744;50.938;7.286;2024-02-04T13:33:39;2.05;;;1.77;;
34497;SDS011;20744;50.938;7.286;2024-02-04T13:36:07;2.47;;;2.00;;
34497;SDS011;20744;50.938;7.286;2024-02-04T13:38:34;3.13;;;2.15;;
34497;SDS011;20744;50.938;7.286;2024-02-04T13:41:01;2.30;;;2.10;;
34497;SDS011;20744;50.938;7.286;2024-02-04T13:43:29;3.25;;;2.50;;
34497;SDS011;20744;50.938;7.286;2024-02-04T13:45:56;4.95;;;2.60;;
34497;SDS011;20744;50.938;7.286;2024-02-04T13:48:24;3.00;;;2.60;;
34497;SDS011;20744;50.938;7.286;2024-02-04T13:50:53;4.10;;;2.53;;
34497;SDS011;20744;50.938;7.286;2024-02-04T13:53:20;5.32;;;2.53;;
34497;SDS011;20744;50.938;7.286;2024-02-04T13:55:47;3.58;;;3.08;;
34497;SDS011;20744;50.938;7.286;2024-02-04T13:58:15;4.93;;;3.40;;
34497;SDS011;20744;50.938;7.286;2024-02-04T14:00:43;4.35;;;3.67;;
34497;SDS011;20744;50.938;7.286;2024-02-04T14:03:10;5.43;;;4.18;;
34497;SDS011;20744;50.938;7.286;2024-02-04T14:05:38;4.47;;;4.00;;
34497;SDS011;20744;50.938;7.286;2024-02-04T14:08:07;4.85;;;3.72;;
34497;SDS011;20744;50.938;7.286;2024-02-04T14:10:35;5.93;;;4.78;;
34497;SDS011;20744;50.938;7.286;2024-02-04T14:13:03;6.07;;;4.68;;
34497;SDS011;20744;50.938;7.286;2024-02-04T14:15:31;7.55;;;3.47;;
34497;SDS011;20744;50.938;7.286;2024-02-04T14:17:59;4.75;;;3.45;;
34497;SDS011;20744;50.938;7.286;2024-02-04T14:20:30;4.55;;;3.17;;
34497;SDS011;20744;50.938;7.286;2024-02-04T14:22:57;4.20;;;3.22;;
34497;SDS011;20744;50.938;7.286;2024-02-04T14:25:26;2.65;;;2.25;;
34497;SDS011;20744;50.938;7.286;2024-02-04T14:27:53;3.15;;;2.20;;
34497;SDS011;20744;50.938;7.286;2024-02-04T14:30:20;4.85;;;2.28;;
34497;SDS011;20744;50.938;7.286;2024-02-04T14:32:48;6.00;;;2.05;;
34497;SDS011;20744;50.938;7.286;2024-02-04T14:35:15;4.32;;;2.15;;
34497;SDS011;20744;50.938;7.286;2024-02-04T14:37:42;2.80;;;1.85;;
34497;SDS011;20744;50.938;7.286;2024-02-04T14:40:10;4.03;;;1.60;;
34497;SDS011;20744;50.938;7.286;2024-02-04T14:42:39;2.53;;;1.73;;
34497;SDS011;20744;50.938;7.286;2024-02-04T14:45:07;2.30;;;1.58;;
34497;SDS011;20744;50.938;7.286;2024-02-04T14:47:35;2.10;;;1.85;;
34497;SDS011;20744;50.938;7.286;2024-02-04T14:50:03;3.00;;;1.70;;